createdAt,value
2023-03-29T00:01:56.772Z,42.80
2023-03-29T00:04:34.265Z,42.90
2023-03-29T00:07:07.759Z,42.90
2023-03-29T00:09:41.541Z,43.00
2023-03-29T00:12:14.768Z,42.90
2023-03-29T00:14:49.552Z,43.30
2023-03-29T00:17:22.953Z,43.00
2023-03-29T00:19:56.372Z,43.10
2023-03-29T00:22:29.696Z,43.10
2023-03-29T00:25:03.125Z,43.20
2023-03-29T00:27:36.534Z,43.10
2023-03-29T00:30:12.735Z,43.20
2023-03-29T00:32:46.345Z,43.20
2023-03-29T00:35:20.207Z,43.20
2023-03-29T00:37:53.463Z,43.20
2023-03-29T00:40:27.007Z,43.10
2023-03-29T00:43:00.597Z,43.10
2023-03-29T00:45:36.400Z,43.10
2023-03-29T00:48:12.258Z,43.10
2023-03-29T00:50:49.323Z,43.10
2023-03-29T00:53:27.310Z,43.20
2023-03-29T00:56:05.406Z,43.10
2023-03-29T00:58:44.297Z,43.10
2023-03-29T01:01:25.997Z,43.10
2023-03-29T01:04:04.351Z,43.10
2023-03-29T01:06:43.480Z,43.30
2023-03-29T01:09:19.839Z,43.20
2023-03-29T01:11:57.309Z,43.10
2023-03-29T01:14:36.472Z,43.10
2023-03-29T01:17:12.957Z,43.10
2023-03-29T01:19:53.815Z,43.20
2023-03-29T01:22:38.598Z,43.20
2023-03-29T01:25:22.432Z,43.10
2023-03-29T01:28:02.395Z,43.30
2023-03-29T01:30:46.663Z,43.20
2023-03-29T01:33:23.561Z,43.10
2023-03-29T01:36:01.507Z,43.10
2023-03-29T01:38:40.315Z,43.10
2023-03-29T01:41:13.813Z,43.30
2023-03-29T01:43:55.694Z,43.30
2023-03-29T01:46:34.917Z,43.30
2023-03-29T01:49:15.729Z,43.30
2023-03-29T01:51:54.661Z,43.30
2023-03-29T01:54:32.805Z,43.30
2023-03-29T01:57:07.702Z,43.40
2023-03-29T01:59:45.898Z,43.40
2023-03-29T02:02:22.142Z,43.40
2023-03-29T02:04:57.510Z,43.40
2023-03-29T02:07:32.296Z,43.40
2023-03-29T02:10:08.345Z,43.50
2023-03-29T02:12:42.003Z,43.30
2023-03-29T02:15:19.797Z,43.40
2023-03-29T02:17:54.761Z,43.40
2023-03-29T02:20:32.280Z,43.40
2023-03-29T02:23:10.158Z,43.40
2023-03-29T02:25:45.577Z,43.40
2023-03-29T02:28:19.259Z,43.40
2023-03-29T02:30:59.830Z,43.60
2023-03-29T02:33:42.403Z,43.60
2023-03-29T02:36:20.920Z,43.50
2023-03-29T02:38:55.793Z,43.60
2023-03-29T02:41:29.877Z,43.60
2023-03-29T02:44:05.589Z,43.60
2023-03-29T02:46:42.973Z,43.70
2023-03-29T02:49:16.712Z,43.70
2023-03-29T02:51:52.718Z,43.70
2023-03-29T02:54:29.963Z,43.60
2023-03-29T02:57:06.769Z,43.70
2023-03-29T02:59:44.014Z,43.80
2023-03-29T03:02:19.050Z,43.70
2023-03-29T03:04:52.693Z,43.60
2023-03-29T03:07:26.302Z,43.60
2023-03-29T03:09:59.819Z,43.50
2023-03-29T03:12:33.294Z,43.60
2023-03-29T03:15:07.988Z,43.00
2023-03-29T03:17:46.603Z,43.50
2023-03-29T03:20:23.008Z,43.60
2023-03-29T03:22:57.501Z,43.50
2023-03-29T03:25:31.740Z,43.60
2023-03-29T03:28:05.115Z,43.60
2023-03-29T03:30:39.230Z,43.30
2023-03-29T03:33:34.575Z,43.50
2023-03-29T03:36:29.153Z,43.60
2023-03-29T03:39:05.831Z,43.60
2023-03-29T03:41:39.254Z,43.70
2023-03-29T03:44:13.266Z,43.70
2023-03-29T03:46:47.326Z,43.60
2023-03-29T03:49:22.867Z,43.70
2023-03-29T03:51:56.497Z,43.70
2023-03-29T03:54:30.086Z,43.60
2023-03-29T03:57:24.622Z,43.70
2023-03-29T03:59:59.212Z,43.70
2023-03-29T04:02:46.638Z,43.60
2023-03-29T04:05:21.899Z,43.60
2023-03-29T04:07:56.159Z,43.70
2023-03-29T04:10:41.528Z,43.70
2023-03-29T04:13:19.669Z,43.80
2023-03-29T04:16:18.608Z,43.80
2023-03-29T04:18:52.215Z,43.80
2023-03-29T04:21:27.331Z,43.10
2023-03-29T04:24:00.952Z,43.70
2023-03-29T04:26:35.008Z,43.80
2023-03-29T04:29:21.642Z,43.80
2023-03-29T04:32:01.349Z,43.70
2023-03-29T04:34:53.240Z,43.90
2023-03-29T04:37:29.391Z,44.50
2023-03-29T04:40:04.855Z,44.60
2023-03-29T04:42:49.785Z,44.60
2023-03-29T04:45:23.273Z,44.30
2023-03-29T04:48:10.743Z,44.10
2023-03-29T04:50:47.942Z,44.20
2023-03-29T04:53:25.069Z,44.30
2023-03-29T04:55:59.602Z,44.40
2023-03-29T04:59:05.369Z,44.50
2023-03-29T05:01:39.613Z,44.70
2023-03-29T05:04:14.027Z,44.60
2023-03-29T05:06:58.585Z,44.70
2023-03-29T05:09:35.427Z,44.80
2023-03-29T05:12:10.505Z,44.80
2023-03-29T05:14:54.416Z,44.80
2023-03-29T05:17:31.783Z,45.00
2023-03-29T05:20:11.763Z,44.70
2023-03-29T05:22:46.129Z,44.70
2023-03-29T05:25:33.567Z,45.30
2023-03-29T05:28:07.083Z,45.20
2023-03-29T05:30:40.691Z,44.70
2023-03-29T05:33:25.744Z,44.60
2023-03-29T05:36:01.163Z,44.90
2023-03-29T05:38:35.866Z,45.00
2023-03-29T05:41:11.533Z,45.00
2023-03-29T05:44:20.090Z,44.70
2023-03-29T05:46:58.062Z,44.50
2023-03-29T05:49:31.937Z,44.50
2023-03-29T05:52:25.709Z,44.70
2023-03-29T05:54:59.071Z,44.80
2023-03-29T05:57:36.743Z,45.00
2023-03-29T06:00:23.625Z,45.30
2023-03-29T06:03:13.670Z,45.70
2023-03-29T06:05:58.675Z,46.20
2023-03-29T06:08:33.107Z,46.90
2023-03-29T06:11:19.779Z,47.20
2023-03-29T06:14:14.643Z,47.40
2023-03-29T06:16:55.045Z,47.40
2023-03-29T06:19:29.253Z,47.70
2023-03-29T06:22:02.758Z,47.80
2023-03-29T06:24:39.330Z,48.10
2023-03-29T06:27:20.053Z,48.30
2023-03-29T06:29:54.857Z,48.30
2023-03-29T06:32:28.991Z,48.30
2023-03-29T06:35:07.861Z,48.40
2023-03-29T06:37:50.450Z,48.40
2023-03-29T06:40:32.347Z,48.80
2023-03-29T06:43:06.719Z,48.80
2023-03-29T06:45:55.875Z,49.00
2023-03-29T06:48:41.016Z,48.90
2023-03-29T06:51:14.678Z,49.00
2023-03-29T06:53:48.254Z,48.90
2023-03-29T06:56:22.623Z,48.90
2023-03-29T06:59:08.535Z,48.60
2023-03-29T07:01:55.125Z,48.60
2023-03-29T07:04:51.763Z,48.80
2023-03-29T07:07:43.842Z,48.90
2023-03-29T07:10:32.477Z,49.00
2023-03-29T07:13:26.291Z,49.10
2023-03-29T07:16:00.623Z,48.80
2023-03-29T07:18:56.678Z,48.80
2023-03-29T07:21:48.401Z,48.80
2023-03-29T07:24:22.587Z,48.90
2023-03-29T07:27:04.092Z,49.20
2023-03-29T07:29:39.623Z,48.90
2023-03-29T07:32:13.100Z,49.20
2023-03-29T07:34:51.310Z,49.30
2023-03-29T07:37:35.254Z,49.20
2023-03-29T07:40:16.038Z,49.60
2023-03-29T07:43:08.997Z,49.80
2023-03-29T07:45:44.845Z,49.80
2023-03-29T07:48:19.488Z,49.60
2023-03-29T07:51:05.161Z,49.20
2023-03-29T07:53:50.264Z,49.20
2023-03-29T07:56:44.444Z,48.70
2023-03-29T07:59:32.107Z,48.60
2023-03-29T08:02:19.204Z,48.30
2023-03-29T08:04:57.133Z,48.10
2023-03-29T08:07:51.103Z,48.30
2023-03-29T08:10:42.510Z,48.30
2023-03-29T08:13:37.438Z,48.60
2023-03-29T08:16:29.512Z,48.50
2023-03-29T08:19:17.284Z,48.20
2023-03-29T08:22:01.176Z,47.90
2023-03-29T08:24:44.070Z,47.90
2023-03-29T08:27:17.675Z,47.80
2023-03-29T08:29:51.789Z,47.90
2023-03-29T08:32:25.304Z,47.90
2023-03-29T08:34:59.209Z,48.00
2023-03-29T08:37:38.697Z,48.00
2023-03-29T08:40:21.480Z,48.20
2023-03-29T08:43:16.966Z,48.30
2023-03-29T08:46:34.297Z,48.40
2023-03-29T08:49:20.775Z,48.40
2023-03-29T08:51:59.511Z,48.30
2023-03-29T08:54:39.801Z,48.40
2023-03-29T08:57:22.137Z,48.40
2023-03-29T09:00:06.961Z,48.50
2023-03-29T09:02:46.472Z,48.50
2023-03-29T09:05:26.810Z,48.50
2023-03-29T09:08:22.067Z,48.60
2023-03-29T09:11:10.717Z,48.80
2023-03-29T09:13:58.386Z,48.90
2023-03-29T09:16:36.978Z,49.00
2023-03-29T09:19:20.785Z,49.10
2023-03-29T09:22:00.368Z,49.20
2023-03-29T09:24:52.140Z,49.20
2023-03-29T09:27:31.457Z,49.20
2023-03-29T09:30:29.586Z,49.00
2023-03-29T09:33:14.552Z,34.00
2023-03-29T09:36:10.118Z,28.20
2023-03-29T09:38:49.772Z,26.80
2023-03-29T09:41:29.520Z,25.90
2023-03-29T09:44:15.007Z,26.40
2023-03-29T09:47:03.862Z,27.60
2023-03-29T09:49:44.143Z,27.70
2023-03-29T09:52:20.928Z,28.10
2023-03-29T09:55:07.832Z,28.20
2023-03-29T09:58:02.486Z,28.80
2023-03-29T10:00:41.514Z,29.80
2023-03-29T10:03:21.938Z,30.10
2023-03-29T10:06:09.736Z,30.40
2023-03-29T10:08:47.735Z,31.50
2023-03-29T10:11:24.524Z,32.10
2023-03-29T10:14:02.365Z,31.90
2023-03-29T10:16:39.413Z,32.70
2023-03-29T10:19:23.497Z,32.90
2023-03-29T10:21:57.042Z,33.80
2023-03-29T10:24:30.485Z,34.20
2023-03-29T10:27:07.905Z,33.90
2023-03-29T10:29:44.311Z,34.30
2023-03-29T10:32:24.249Z,34.40
2023-03-29T10:35:11.807Z,34.50
2023-03-29T10:37:46.204Z,35.50
2023-03-29T10:40:23.149Z,34.40
2023-03-29T10:43:00.329Z,34.30
2023-03-29T10:45:36.643Z,34.50
2023-03-29T10:48:13.974Z,34.80
2023-03-29T10:50:53.277Z,34.70
2023-03-29T10:53:28.191Z,35.00
2023-03-29T10:56:12.722Z,34.90
2023-03-29T10:59:04.171Z,34.90
2023-03-29T11:01:46.423Z,34.80
2023-03-29T11:04:29.107Z,35.30
2023-03-29T11:07:23.427Z,35.10
2023-03-29T11:10:04.843Z,35.30
2023-03-29T11:12:44.169Z,34.90
2023-03-29T11:15:32.207Z,35.00
2023-03-29T11:18:22.234Z,35.10
2023-03-29T11:21:06.806Z,34.90
2023-03-29T11:23:50.859Z,34.90
2023-03-29T11:26:27.650Z,35.00
2023-03-29T11:29:10.267Z,35.00
2023-03-29T11:31:51.488Z,35.10
2023-03-29T11:34:30.756Z,34.90
2023-03-29T11:37:15.234Z,35.00
2023-03-29T11:39:59.590Z,35.20
2023-03-29T11:42:36.144Z,35.10
2023-03-29T11:45:16.793Z,35.30
2023-03-29T11:47:53.064Z,35.50
2023-03-29T11:50:30.881Z,35.40
2023-03-29T11:53:09.713Z,35.30
2023-03-29T11:55:45.911Z,35.80
2023-03-29T11:58:23.989Z,36.10
2023-03-29T12:01:02.623Z,36.20
2023-03-29T12:03:42.212Z,36.40
2023-03-29T12:06:22.991Z,36.40
2023-03-29T12:09:02.366Z,36.50
2023-03-29T12:11:40.729Z,36.60
2023-03-29T12:14:17.957Z,36.90
2023-03-29T12:16:54.627Z,37.00
2023-03-29T12:19:32.678Z,37.80
2023-03-29T12:22:07.885Z,37.40
2023-03-29T12:24:47.443Z,37.70
2023-03-29T12:27:27.813Z,37.90
2023-03-29T12:30:21.662Z,37.90
2023-03-29T12:33:30.016Z,38.00
2023-03-29T12:37:01.528Z,38.10
2023-03-29T12:40:06.384Z,38.30
2023-03-29T12:43:09.994Z,38.30
2023-03-29T12:46:11.498Z,38.50
2023-03-29T12:48:48.014Z,38.60
2023-03-29T12:51:24.534Z,38.70
2023-03-29T12:54:07.377Z,39.30
2023-03-29T12:56:54.190Z,38.70
2023-03-29T12:59:39.423Z,38.00
2023-03-29T13:02:37.059Z,37.80
2023-03-29T13:05:29.566Z,37.40
2023-03-29T13:08:21.849Z,36.90
2023-03-29T13:10:56.750Z,36.80
2023-03-29T13:13:34.277Z,36.20
2023-03-29T13:16:17.590Z,35.80
2023-03-29T13:19:07.324Z,35.80
2023-03-29T13:21:52.236Z,35.70
2023-03-29T13:24:40.820Z,35.10
2023-03-29T13:27:26.270Z,35.80
2023-03-29T13:30:17.870Z,36.00
2023-03-29T13:33:12.461Z,36.00
2023-03-29T13:35:58.217Z,36.30
2023-03-29T13:38:33.250Z,36.50
2023-03-29T13:41:12.894Z,36.70
2023-03-29T13:43:54.619Z,37.00
2023-03-29T13:46:40.902Z,37.40
2023-03-29T13:49:20.824Z,37.80
2023-03-29T13:52:09.562Z,38.10
2023-03-29T13:54:47.713Z,39.20
2023-03-29T13:57:27.385Z,40.10
2023-03-29T14:00:11.869Z,41.60
2023-03-29T14:02:49.738Z,42.70
2023-03-29T14:05:29.136Z,43.30
2023-03-29T14:08:12.988Z,43.70
2023-03-29T14:10:50.557Z,43.80
2023-03-29T14:13:27.459Z,43.50
2023-03-29T14:16:16.324Z,43.30
2023-03-29T14:18:54.536Z,43.30
2023-03-29T14:21:30.584Z,42.90
2023-03-29T14:24:04.297Z,42.60
2023-03-29T14:26:40.401Z,42.50
2023-03-29T14:29:13.834Z,42.30
2023-03-29T14:31:47.624Z,42.10
2023-03-29T14:34:21.636Z,41.80
2023-03-29T14:36:56.673Z,41.30
2023-03-29T14:39:34.245Z,41.10
2023-03-29T14:42:14.434Z,40.90
2023-03-29T14:44:49.211Z,40.90
2023-03-29T14:47:28.462Z,40.50
2023-03-29T14:50:02.764Z,40.00
2023-03-29T14:52:38.536Z,39.40
2023-03-29T14:55:13.181Z,39.40
2023-03-29T14:57:49.280Z,38.60
2023-03-29T15:00:28.180Z,38.10
2023-03-29T15:03:02.819Z,38.00
2023-03-29T15:05:39.836Z,37.80
2023-03-29T15:08:19.211Z,37.50
2023-03-29T15:10:52.885Z,37.30
2023-03-29T15:13:27.530Z,37.10
2023-03-29T15:16:05.932Z,36.80
2023-03-29T15:18:43.813Z,36.70
2023-03-29T15:21:18.295Z,36.70
2023-03-29T15:23:56.894Z,36.90
2023-03-29T15:26:32.628Z,36.50
2023-03-29T15:29:09.143Z,36.20
2023-03-29T15:31:43.221Z,36.30
2023-03-29T15:34:27.310Z,36.50
2023-03-29T15:37:01.555Z,36.40
2023-03-29T15:39:38.767Z,36.40
2023-03-29T15:42:12.743Z,36.30
2023-03-29T15:44:46.306Z,36.30
2023-03-29T15:47:19.730Z,35.80
2023-03-29T15:49:53.142Z,35.90
2023-03-29T15:52:26.524Z,35.80
2023-03-29T15:55:01.461Z,35.80
2023-03-29T15:57:35.257Z,35.60
2023-03-29T16:00:14.364Z,35.40
2023-03-29T16:02:47.883Z,35.30
2023-03-29T16:05:21.585Z,35.20
2023-03-29T16:07:55.071Z,35.20
2023-03-29T16:10:30.008Z,35.10
2023-03-29T16:13:03.445Z,35.00
2023-03-29T16:15:37.597Z,35.00
2023-03-29T16:18:11.037Z,35.00
2023-03-29T16:20:44.502Z,35.10
2023-03-29T16:23:17.963Z,35.20
2023-03-29T16:25:52.776Z,35.30
2023-03-29T16:28:26.933Z,35.40
2023-03-29T16:31:01.708Z,35.40
2023-03-29T16:33:35.190Z,35.40
2023-03-29T16:36:09.443Z,35.50
2023-03-29T16:38:43.181Z,35.50
2023-03-29T16:41:18.734Z,35.60
2023-03-29T16:43:52.159Z,35.50
2023-03-29T16:46:26.481Z,35.60
2023-03-29T16:49:00.136Z,35.60
2023-03-29T16:51:33.517Z,35.50
2023-03-29T16:54:07.300Z,36.30
2023-03-29T16:56:42.094Z,35.60
2023-03-29T16:59:15.738Z,36.10
2023-03-29T17:01:49.416Z,35.50
2023-03-29T17:04:23.291Z,35.40
2023-03-29T17:06:57.579Z,35.40
2023-03-29T17:09:31.023Z,35.50
2023-03-29T17:12:05.985Z,36.20
2023-03-29T17:14:41.817Z,35.60
2023-03-29T17:17:15.455Z,35.80
2023-03-29T17:19:49.019Z,35.70
2023-03-29T17:22:24.828Z,35.70
2023-03-29T17:24:58.289Z,35.80
2023-03-29T17:27:33.189Z,36.00
2023-03-29T17:30:08.405Z,36.30
2023-03-29T17:32:42.988Z,36.60
2023-03-29T17:35:16.533Z,36.60
2023-03-29T17:37:50.006Z,37.00
2023-03-29T17:40:23.656Z,37.20
2023-03-29T17:42:58.450Z,37.60
2023-03-29T17:45:32.237Z,37.80
2023-03-29T17:48:06.608Z,38.10
2023-03-29T17:50:40.107Z,38.60
2023-03-29T17:53:14.440Z,38.80
2023-03-29T17:55:47.925Z,39.10
2023-03-29T17:58:22.754Z,40.10
2023-03-29T18:00:56.230Z,39.80
2023-03-29T18:03:29.744Z,40.00
2023-03-29T18:06:03.982Z,40.40
2023-03-29T18:08:38.262Z,40.70
2023-03-29T18:11:14.050Z,41.00
2023-03-29T18:13:49.354Z,41.20
2023-03-29T18:16:23.907Z,41.50
2023-03-29T18:18:58.526Z,41.60
2023-03-29T18:21:37.400Z,41.60
2023-03-29T18:24:18.863Z,41.80
2023-03-29T18:26:59.496Z,42.40
2023-03-29T18:29:38.526Z,42.70
2023-03-29T18:32:12.711Z,43.30
2023-03-29T18:34:47.800Z,43.50
2023-03-29T18:37:25.416Z,43.90
2023-03-29T18:40:12.611Z,44.10
2023-03-29T18:42:50.483Z,44.30
2023-03-29T18:45:29.126Z,44.40
2023-03-29T18:48:06.153Z,44.80
2023-03-29T18:50:40.456Z,45.40
2023-03-29T18:53:16.385Z,46.40
2023-03-29T18:55:57.655Z,46.20
2023-03-29T18:58:35.841Z,46.40
2023-03-29T19:01:13.284Z,46.90
2023-03-29T19:03:49.365Z,47.60
2023-03-29T19:06:23.953Z,47.90
2023-03-29T19:09:02.811Z,48.00
2023-03-29T19:11:41.878Z,48.00
2023-03-29T19:14:25.972Z,48.20
2023-03-29T19:17:01.045Z,48.20
2023-03-29T19:19:34.690Z,48.40
2023-03-29T19:22:08.239Z,48.30
2023-03-29T19:24:41.706Z,48.40
2023-03-29T19:27:15.464Z,48.50
2023-03-29T19:29:49.778Z,48.40
2023-03-29T19:32:25.005Z,48.70
2023-03-29T19:34:58.729Z,48.40
2023-03-29T19:37:32.148Z,48.40
2023-03-29T19:40:08.369Z,48.30
2023-03-29T19:42:41.836Z,48.50
2023-03-29T19:45:15.591Z,48.40
2023-03-29T19:47:54.887Z,48.40
2023-03-29T19:50:29.410Z,48.40
2023-03-29T19:53:03.033Z,48.40
2023-03-29T19:55:39.536Z,48.40
2023-03-29T19:58:13.256Z,48.50
2023-03-29T20:00:46.831Z,48.60
2023-03-29T20:03:22.285Z,48.60
2023-03-29T20:05:56.643Z,48.40
2023-03-29T20:08:30.112Z,48.40
2023-03-29T20:11:05.045Z,48.40
2023-03-29T20:13:39.511Z,48.30
2023-03-29T20:16:16.651Z,48.20
2023-03-29T20:18:54.103Z,48.10
2023-03-29T20:21:28.690Z,48.10
2023-03-29T20:24:02.218Z,47.90
2023-03-29T20:26:35.618Z,47.80
2023-03-29T20:29:09.356Z,47.80
2023-03-29T20:31:42.656Z,47.80
2023-03-29T20:34:18.235Z,47.80
2023-03-29T20:36:55.195Z,47.80
2023-03-29T20:39:29.639Z,47.80
2023-03-29T20:42:03.136Z,47.80
2023-03-29T20:44:36.657Z,47.80
2023-03-29T20:47:14.124Z,47.80
2023-03-29T20:49:54.178Z,47.80
2023-03-29T20:52:27.626Z,47.90
2023-03-29T20:55:01.015Z,48.00
2023-03-29T20:57:34.423Z,47.80
2023-03-29T21:00:12.316Z,47.60
2023-03-29T21:02:46.263Z,47.60
2023-03-29T21:05:21.181Z,47.60
2023-03-29T21:07:55.971Z,47.50
2023-03-29T21:10:29.692Z,47.30
2023-03-29T21:13:03.110Z,47.20
2023-03-29T21:15:38.109Z,47.70
2023-03-29T21:18:12.125Z,47.60
2023-03-29T21:20:47.513Z,48.30
2023-03-29T21:23:20.977Z,47.80
2023-03-29T21:25:54.336Z,47.70
2023-03-29T21:28:27.780Z,47.70
2023-03-29T21:31:05.444Z,47.50
2023-03-29T21:33:39.162Z,47.60
2023-03-29T21:36:13.989Z,47.70
2023-03-29T21:38:47.503Z,48.00
2023-03-29T21:41:21.972Z,48.20
2023-03-29T21:43:55.404Z,47.80
2023-03-29T21:46:28.807Z,47.70
2023-03-29T21:49:02.224Z,47.60
2023-03-29T21:51:37.171Z,47.50
2023-03-29T21:54:11.212Z,47.70
2023-03-29T21:56:45.939Z,47.60
2023-03-29T21:59:19.352Z,47.50
2023-03-29T22:01:52.806Z,47.30
2023-03-29T22:04:35.927Z,47.40
2023-03-29T22:07:12.387Z,47.70
2023-03-29T22:09:46.544Z,47.80
2023-03-29T22:12:19.909Z,48.40
2023-03-29T22:14:53.295Z,47.90
2023-03-29T22:17:28.669Z,47.80
2023-03-29T22:20:02.617Z,47.80
2023-03-29T22:22:37.363Z,47.90
2023-03-29T22:25:11.498Z,47.70
2023-03-29T22:27:48.217Z,47.80
2023-03-29T22:30:22.820Z,47.70
2023-03-29T22:32:56.329Z,47.70
2023-03-29T22:35:29.803Z,48.30
2023-03-29T22:38:04.507Z,47.70
2023-03-29T22:40:41.512Z,47.80
2023-03-29T22:43:14.851Z,47.80
2023-03-29T22:45:48.312Z,47.90
2023-03-29T22:48:21.713Z,47.90
2023-03-29T22:50:55.042Z,47.80
2023-03-29T22:53:30.148Z,47.80
2023-03-29T22:56:03.627Z,47.80
2023-03-29T22:58:37.130Z,47.80
2023-03-29T23:01:10.837Z,49.10
2023-03-29T23:03:44.222Z,50.00
2023-03-29T23:06:17.694Z,50.20
2023-03-29T23:08:52.524Z,50.20
2023-03-29T23:11:26.254Z,50.20
2023-03-29T23:13:59.629Z,50.00
2023-03-29T23:16:33.822Z,49.80
2023-03-29T23:19:07.408Z,49.70
2023-03-29T23:21:41.879Z,49.80
2023-03-29T23:24:19.043Z,49.90
2023-03-29T23:26:52.701Z,50.00
2023-03-29T23:29:26.302Z,50.10
2023-03-29T23:31:59.715Z,50.10
2023-03-29T23:34:33.217Z,50.10
2023-03-29T23:37:06.552Z,50.10
2023-03-29T23:39:41.611Z,50.00
2023-03-29T23:42:14.961Z,50.00
2023-03-29T23:44:48.324Z,50.00
2023-03-29T23:47:21.761Z,49.90
2023-03-29T23:49:55.132Z,49.90
2023-03-29T23:52:28.494Z,49.80
2023-03-29T23:55:04.525Z,49.80
2023-03-29T23:57:37.877Z,49.80
